sensor_id;sensor_type;location;lat;lon;timestamp;temperature;humidity
8676;DHT22;4375;52.486;13.424;2023-03-04T00:01:05;3.10;99.90
8676;DHT22;4375;52.486;13.424;2023-03-04T00:03:30;3.10;99.90
8676;DHT22;4375;52.486;13.424;2023-03-04T00:05:56;3.10;99.90
8676;DHT22;4375;52.486;13.424;2023-03-04T00:08:22;3.10;99.90
8676;DHT22;4375;52.486;13.424;2023-03-04T00:10:47;3.10;99.90
8676;DHT22;4375;52.486;13.424;2023-03-04T00:13:13;3.00;99.90
8676;DHT22;4375;52.486;13.424;2023-03-04T00:15:38;3.10;99.90
8676;DHT22;4375;52.486;13.424;2023-03-04T00:18:04;3.00;99.90
8676;DHT22;4375;52.486;13.424;2023-03-04T00:20:30;3.00;99.90
8676;DHT22;4375;52.486;13.424;2023-03-04T00:22:55;3.10;99.90
8676;DHT22;4375;52.486;13.424;2023-03-04T00:25:21;3.20;99.90
8676;DHT22;4375;52.486;13.424;2023-03-04T00:27:47;3.20;99.90
8676;DHT22;4375;52.486;13.424;2023-03-04T00:30:12;3.20;99.90
8676;DHT22;4375;52.486;13.424;2023-03-04T00:32:38;3.20;99.90
8676;DHT22;4375;52.486;13.424;2023-03-04T00:35:05;3.20;99.90
8676;DHT22;4375;52.486;13.424;2023-03-04T00:37:31;3.30;99.90
8676;DHT22;4375;52.486;13.424;2023-03-04T00:39:57;3.30;99.90
8676;DHT22;4375;52.486;13.424;2023-03-04T00:42:22;3.30;99.90
8676;DHT22;4375;52.486;13.424;2023-03-04T00:44:48;3.30;99.90
8676;DHT22;4375;52.486;13.424;2023-03-04T00:47:14;3.40;99.90
8676;DHT22;4375;52.486;13.424;2023-03-04T00:49:39;3.50;99.90
8676;DHT22;4375;52.486;13.424;2023-03-04T00:52:05;3.60;99.90
8676;DHT22;4375;52.486;13.424;2023-03-04T00:54:31;3.50;99.90
8676;DHT22;4375;52.486;13.424;2023-03-04T00:56:57;3.50;99.90
8676;DHT22;4375;52.486;13.424;2023-03-04T00:59:23;3.50;99.90
8676;DHT22;4375;52.486;13.424;2023-03-04T01:01:48;3.40;99.90
8676;DHT22;4375;52.486;13.424;2023-03-04T01:04:14;3.50;99.90
8676;DHT22;4375;52.486;13.424;2023-03-04T01:06:39;3.40;99.90
8676;DHT22;4375;52.486;13.424;2023-03-04T01:09:05;3.40;99.90
8676;DHT22;4375;52.486;13.424;2023-03-04T01:11:33;3.40;99.90
8676;DHT22;4375;52.486;13.424;2023-03-04T01:13:58;3.40;99.90
8676;DHT22;4375;52.486;13.424;2023-03-04T01:16:24;3.40;99.90
8676;DHT22;4375;52.486;13.424;2023-03-04T01:18:50;3.30;99.90
8676;DHT22;4375;52.486;13.424;2023-03-04T01:21:15;3.30;99.90
8676;DHT22;4375;52.486;13.424;2023-03-04T01:23:41;3.40;99.90
8676;DHT22;4375;52.486;13.424;2023-03-04T01:26:07;3.50;99.90
8676;DHT22;4375;52.486;13.424;2023-03-04T01:28:32;3.40;99.90
8676;DHT22;4375;52.486;13.424;2023-03-04T01:31:03;3.50;99.90
8676;DHT22;4375;52.486;13.424;2023-03-04T01:33:29;3.50;99.90
8676;DHT22;4375;52.486;13.424;2023-03-04T01:35:56;3.60;99.90
8676;DHT22;4375;52.486;13.424;2023-03-04T01:38:22;3.60;99.90
8676;DHT22;4375;52.486;13.424;2023-03-04T01:40:48;3.70;99.90
8676;DHT22;4375;52.486;13.424;2023-03-04T01:43:19;3.70;99.90
8676;DHT22;4375;52.486;13.424;2023-03-04T01:45:48;3.70;99.90
8676;DHT22;4375;52.486;13.424;2023-03-04T01:48:17;3.70;99.90
8676;DHT22;4375;52.486;13.424;2023-03-04T01:50:43;3.80;99.90
8676;DHT22;4375;52.486;13.424;2023-03-04T01:53:20;3.80;99.90
8676;DHT22;4375;52.486;13.424;2023-03-04T01:55:47;3.80;99.90
8676;DHT22;4375;52.486;13.424;2023-03-04T01:58:12;3.80;99.90
8676;DHT22;4375;52.486;13.424;2023-03-04T02:00:38;3.70;99.90
8676;DHT22;4375;52.486;13.424;2023-03-04T02:03:07;3.70;99.90
8676;DHT22;4375;52.486;13.424;2023-03-04T02:05:37;3.70;99.90
8676;DHT22;4375;52.486;13.424;2023-03-04T02:08:05;3.80;99.90
8676;DHT22;4375;52.486;13.424;2023-03-04T02:10:31;3.90;99.90
8676;DHT22;4375;52.486;13.424;2023-03-04T02:12:59;3.90;99.90
8676;DHT22;4375;52.486;13.424;2023-03-04T02:15:26;3.90;99.90
8676;DHT22;4375;52.486;13.424;2023-03-04T02:17:51;3.90;99.90
8676;DHT22;4375;52.486;13.424;2023-03-04T02:23:15;4.00;99.90
8676;DHT22;4375;52.486;13.424;2023-03-04T02:25:46;3.90;99.90
8676;DHT22;4375;52.486;13.424;2023-03-04T02:28:13;4.00;99.90
8676;DHT22;4375;52.486;13.424;2023-03-04T02:30:39;4.00;99.90
8676;DHT22;4375;52.486;13.424;2023-03-04T02:33:05;4.10;99.90
8676;DHT22;4375;52.486;13.424;2023-03-04T02:35:32;4.10;99.90
8676;DHT22;4375;52.486;13.424;2023-03-04T02:37:57;4.10;99.90
8676;DHT22;4375;52.486;13.424;2023-03-04T02:40:29;4.20;99.90
8676;DHT22;4375;52.486;13.424;2023-03-04T02:42:58;4.20;99.90
8676;DHT22;4375;52.486;13.424;2023-03-04T02:45:39;4.20;99.90
8676;DHT22;4375;52.486;13.424;2023-03-04T02:48:06;4.20;99.90
8676;DHT22;4375;52.486;13.424;2023-03-04T02:50:38;4.30;99.90
8676;DHT22;4375;52.486;13.424;2023-03-04T02:53:05;4.30;99.90
8676;DHT22;4375;52.486;13.424;2023-03-04T02:55:31;4.30;99.90
8676;DHT22;4375;52.486;13.424;2023-03-04T02:57:57;4.20;99.90
8676;DHT22;4375;52.486;13.424;2023-03-04T03:00:23;4.40;99.90
8676;DHT22;4375;52.486;13.424;2023-03-04T03:02:48;4.40;99.90
8676;DHT22;4375;52.486;13.424;2023-03-04T03:05:14;4.50;99.90
8676;DHT22;4375;52.486;13.424;2023-03-04T03:07:40;4.40;99.90
8676;DHT22;4375;52.486;13.424;2023-03-04T03:10:06;4.40;99.90
8676;DHT22;4375;52.486;13.424;2023-03-04T03:12:31;4.40;99.90
8676;DHT22;4375;52.486;13.424;2023-03-04T03:14:57;4.50;99.90
8676;DHT22;4375;52.486;13.424;2023-03-04T03:17:22;4.50;99.90
8676;DHT22;4375;52.486;13.424;2023-03-04T03:19:48;4.50;99.90
8676;DHT22;4375;52.486;13.424;2023-03-04T03:22:14;4.50;99.90
8676;DHT22;4375;52.486;13.424;2023-03-04T03:24:39;4.60;99.90
8676;DHT22;4375;52.486;13.424;2023-03-04T03:27:05;4.60;99.90
8676;DHT22;4375;52.486;13.424;2023-03-04T03:29:30;4.60;99.90
8676;DHT22;4375;52.486;13.424;2023-03-04T03:31:56;4.60;99.90
8676;DHT22;4375;52.486;13.424;2023-03-04T03:34:22;4.70;99.90
8676;DHT22;4375;52.486;13.424;2023-03-04T03:36:47;4.60;99.90
8676;DHT22;4375;52.486;13.424;2023-03-04T03:39:13;4.70;99.90
8676;DHT22;4375;52.486;13.424;2023-03-04T03:41:40;4.70;99.90
8676;DHT22;4375;52.486;13.424;2023-03-04T03:44:06;4.60;99.90
8676;DHT22;4375;52.486;13.424;2023-03-04T03:46:32;4.60;99.90
8676;DHT22;4375;52.486;13.424;2023-03-04T03:48:57;4.60;99.90
8676;DHT22;4375;52.486;13.424;2023-03-04T03:51:23;4.60;99.90
8676;DHT22;4375;52.486;13.424;2023-03-04T03:53:48;4.50;99.90
8676;DHT22;4375;52.486;13.424;2023-03-04T03:56:14;4.40;99.90
8676;DHT22;4375;52.486;13.424;2023-03-04T03:58:40;4.50;99.90
8676;DHT22;4375;52.486;13.424;2023-03-04T04:01:05;4.50;99.90
8676;DHT22;4375;52.486;13.424;2023-03-04T04:03:31;4.50;99.90
8676;DHT22;4375;52.486;13.424;2023-03-04T04:05:56;4.50;99.90
8676;DHT22;4375;52.486;13.424;2023-03-04T04:08:22;4.60;99.90
8676;DHT22;4375;52.486;13.424;2023-03-04T04:10:48;4.60;99.90
8676;DHT22;4375;52.486;13.424;2023-03-04T04:13:13;4.60;99.90
8676;DHT22;4375;52.486;13.424;2023-03-04T04:15:39;4.60;99.90
8676;DHT22;4375;52.486;13.424;2023-03-04T04:18:06;4.50;99.90
8676;DHT22;4375;52.486;13.424;2023-03-04T04:20:32;4.60;99.90
8676;DHT22;4375;52.486;13.424;2023-03-04T04:22:57;4.60;99.90
8676;DHT22;4375;52.486;13.424;2023-03-04T04:25:23;4.60;99.90
8676;DHT22;4375;52.486;13.424;2023-03-04T04:27:48;4.60;99.90
8676;DHT22;4375;52.486;13.424;2023-03-04T04:30:14;4.60;99.90
8676;DHT22;4375;52.486;13.424;2023-03-04T04:32:40;4.50;99.90
8676;DHT22;4375;52.486;13.424;2023-03-04T04:35:06;4.50;99.90
8676;DHT22;4375;52.486;13.424;2023-03-04T04:37:32;4.50;99.90
8676;DHT22;4375;52.486;13.424;2023-03-04T04:39:58;4.50;99.90
8676;DHT22;4375;52.486;13.424;2023-03-04T04:42:23;4.50;99.90
8676;DHT22;4375;52.486;13.424;2023-03-04T04:44:49;4.60;99.90
8676;DHT22;4375;52.486;13.424;2023-03-04T04:47:15;4.60;99.90
8676;DHT22;4375;52.486;13.424;2023-03-04T04:49:40;4.50;99.90
8676;DHT22;4375;52.486;13.424;2023-03-04T04:52:06;4.50;99.90
8676;DHT22;4375;52.486;13.424;2023-03-04T04:54:32;4.50;99.90
8676;DHT22;4375;52.486;13.424;2023-03-04T04:56:57;4.50;99.90
8676;DHT22;4375;52.486;13.424;2023-03-04T04:59:23;4.60;99.90
8676;DHT22;4375;52.486;13.424;2023-03-04T05:01:49;4.50;99.90
8676;DHT22;4375;52.486;13.424;2023-03-04T05:04:14;4.60;99.90
8676;DHT22;4375;52.486;13.424;2023-03-04T05:06:40;4.60;99.90
8676;DHT22;4375;52.486;13.424;2023-03-04T05:09:06;4.60;99.90
8676;DHT22;4375;52.486;13.424;2023-03-04T05:11:32;4.60;99.90
8676;DHT22;4375;52.486;13.424;2023-03-04T05:13:58;4.60;99.90
8676;DHT22;4375;52.486;13.424;2023-03-04T05:16:23;4.60;99.90
8676;DHT22;4375;52.486;13.424;2023-03-04T05:18:49;4.70;99.90
8676;DHT22;4375;52.486;13.424;2023-03-04T05:21:14;4.70;99.90
8676;DHT22;4375;52.486;13.424;2023-03-04T05:23:41;4.70;99.90
8676;DHT22;4375;52.486;13.424;2023-03-04T05:26:09;4.70;99.90
8676;DHT22;4375;52.486;13.424;2023-03-04T05:28:36;4.80;99.90
8676;DHT22;4375;52.486;13.424;2023-03-04T05:31:02;4.80;99.90
8676;DHT22;4375;52.486;13.424;2023-03-04T05:33:28;4.80;99.90
8676;DHT22;4375;52.486;13.424;2023-03-04T05:35:54;4.80;99.90
8676;DHT22;4375;52.486;13.424;2023-03-04T05:38:20;4.90;99.90
8676;DHT22;4375;52.486;13.424;2023-03-04T05:40:47;4.80;99.90
8676;DHT22;4375;52.486;13.424;2023-03-04T05:43:13;4.90;99.90
8676;DHT22;4375;52.486;13.424;2023-03-04T05:45:39;4.90;99.90
8676;DHT22;4375;52.486;13.424;2023-03-04T05:48:06;4.90;99.90
8676;DHT22;4375;52.486;13.424;2023-03-04T05:50:33;4.90;99.90
8676;DHT22;4375;52.486;13.424;2023-03-04T05:52:59;4.90;99.90
8676;DHT22;4375;52.486;13.424;2023-03-04T05:55:25;4.90;99.90
8676;DHT22;4375;52.486;13.424;2023-03-04T05:57:52;4.80;99.90
8676;DHT22;4375;52.486;13.424;2023-03-04T06:00:18;4.90;99.90
8676;DHT22;4375;52.486;13.424;2023-03-04T06:02:44;4.90;99.90
8676;DHT22;4375;52.486;13.424;2023-03-04T06:05:11;4.90;99.90
8676;DHT22;4375;52.486;13.424;2023-03-04T06:07:37;4.90;99.90
8676;DHT22;4375;52.486;13.424;2023-03-04T06:10:03;4.90;99.90
8676;DHT22;4375;52.486;13.424;2023-03-04T06:12:29;4.90;99.90
8676;DHT22;4375;52.486;13.424;2023-03-04T06:14:55;4.90;99.90
8676;DHT22;4375;52.486;13.424;2023-03-04T06:17:20;4.90;99.90
8676;DHT22;4375;52.486;13.424;2023-03-04T06:19:46;5.00;99.90
8676;DHT22;4375;52.486;13.424;2023-03-04T06:22:12;5.10;99.90
8676;DHT22;4375;52.486;13.424;2023-03-04T06:24:37;5.00;99.90
8676;DHT22;4375;52.486;13.424;2023-03-04T06:27:03;5.00;99.90
8676;DHT22;4375;52.486;13.424;2023-03-04T06:29:29;5.00;99.90
8676;DHT22;4375;52.486;13.424;2023-03-04T06:31:54;4.90;99.90
8676;DHT22;4375;52.486;13.424;2023-03-04T06:34:20;5.00;99.90
8676;DHT22;4375;52.486;13.424;2023-03-04T06:36:46;5.10;99.90
8676;DHT22;4375;52.486;13.424;2023-03-04T06:39:11;5.10;99.90
8676;DHT22;4375;52.486;13.424;2023-03-04T06:41:37;5.10;99.90
8676;DHT22;4375;52.486;13.424;2023-03-04T06:44:03;5.10;99.90
8676;DHT22;4375;52.486;13.424;2023-03-04T06:46:29;5.10;99.90
8676;DHT22;4375;52.486;13.424;2023-03-04T06:48:55;5.10;99.90
8676;DHT22;4375;52.486;13.424;2023-03-04T06:51:21;5.10;99.90
8676;DHT22;4375;52.486;13.424;2023-03-04T06:53:46;5.20;99.90
8676;DHT22;4375;52.486;13.424;2023-03-04T06:56:15;5.20;99.90
8676;DHT22;4375;52.486;13.424;2023-03-04T06:58:42;5.20;99.90
8676;DHT22;4375;52.486;13.424;2023-03-04T07:01:22;5.20;99.90
8676;DHT22;4375;52.486;13.424;2023-03-04T07:03:49;5.20;99.90
8676;DHT22;4375;52.486;13.424;2023-03-04T07:06:16;5.20;99.90
8676;DHT22;4375;52.486;13.424;2023-03-04T07:08:43;5.20;99.90
8676;DHT22;4375;52.486;13.424;2023-03-04T07:11:09;5.20;99.90
8676;DHT22;4375;52.486;13.424;2023-03-04T07:13:35;5.20;99.90
8676;DHT22;4375;52.486;13.424;2023-03-04T07:16:04;5.20;99.90
8676;DHT22;4375;52.486;13.424;2023-03-04T07:18:30;5.10;99.90
8676;DHT22;4375;52.486;13.424;2023-03-04T07:20:55;5.10;99.90
8676;DHT22;4375;52.486;13.424;2023-03-04T07:23:21;5.20;99.90
8676;DHT22;4375;52.486;13.424;2023-03-04T07:25:48;5.20;99.90
8676;DHT22;4375;52.486;13.424;2023-03-04T07:28:14;5.30;99.90
8676;DHT22;4375;52.486;13.424;2023-03-04T07:30:40;5.30;99.90
8676;DHT22;4375;52.486;13.424;2023-03-04T07:33:05;5.30;99.90
8676;DHT22;4375;52.486;13.424;2023-03-04T07:35:31;5.40;99.90
8676;DHT22;4375;52.486;13.424;2023-03-04T07:37:57;5.30;99.90
8676;DHT22;4375;52.486;13.424;2023-03-04T07:40:22;5.30;99.90
8676;DHT22;4375;52.486;13.424;2023-03-04T07:42:50;5.40;99.90
8676;DHT22;4375;52.486;13.424;2023-03-04T07:45:16;5.50;99.90
8676;DHT22;4375;52.486;13.424;2023-03-04T07:47:42;5.50;99.90
8676;DHT22;4375;52.486;13.424;2023-03-04T07:50:09;5.50;99.90
8676;DHT22;4375;52.486;13.424;2023-03-04T07:52:42;5.50;99.90
8676;DHT22;4375;52.486;13.424;2023-03-04T07:55:09;5.40;99.90
8676;DHT22;4375;52.486;13.424;2023-03-04T07:57:38;5.50;99.90
8676;DHT22;4375;52.486;13.424;2023-03-04T08:00:04;5.60;99.90
8676;DHT22;4375;52.486;13.424;2023-03-04T08:02:30;5.60;99.90
8676;DHT22;4375;52.486;13.424;2023-03-04T08:04:55;5.80;99.90
8676;DHT22;4375;52.486;13.424;2023-03-04T08:07:21;5.80;99.90
8676;DHT22;4375;52.486;13.424;2023-03-04T08:09:47;5.80;99.90
8676;DHT22;4375;52.486;13.424;2023-03-04T08:12:13;5.90;99.90
8676;DHT22;4375;52.486;13.424;2023-03-04T08:14:38;6.00;99.90
8676;DHT22;4375;52.486;13.424;2023-03-04T08:17:04;5.90;99.90
8676;DHT22;4375;52.486;13.424;2023-03-04T08:19:29;5.90;99.90
8676;DHT22;4375;52.486;13.424;2023-03-04T08:21:55;6.00;99.90
8676;DHT22;4375;52.486;13.424;2023-03-04T08:24:21;5.90;99.90
8676;DHT22;4375;52.486;13.424;2023-03-04T08:26:49;5.90;99.90
8676;DHT22;4375;52.486;13.424;2023-03-04T08:29:20;5.80;99.90
8676;DHT22;4375;52.486;13.424;2023-03-04T08:31:47;5.70;99.90
8676;DHT22;4375;52.486;13.424;2023-03-04T08:34:13;5.80;99.90
8676;DHT22;4375;52.486;13.424;2023-03-04T08:36:40;5.80;99.90
8676;DHT22;4375;52.486;13.424;2023-03-04T08:39:08;5.90;99.90
8676;DHT22;4375;52.486;13.424;2023-03-04T08:41:33;5.90;99.90
8676;DHT22;4375;52.486;13.424;2023-03-04T08:44:00;5.80;99.90
8676;DHT22;4375;52.486;13.424;2023-03-04T08:46:25;5.80;99.90
8676;DHT22;4375;52.486;13.424;2023-03-04T08:48:51;5.90;99.90
8676;DHT22;4375;52.486;13.424;2023-03-04T08:51:16;5.90;99.90
8676;DHT22;4375;52.486;13.424;2023-03-04T08:53:43;5.90;99.90
8676;DHT22;4375;52.486;13.424;2023-03-04T08:56:09;6.00;99.90
8676;DHT22;4375;52.486;13.424;2023-03-04T08:58:35;6.00;99.90
8676;DHT22;4375;52.486;13.424;2023-03-04T09:01:02;6.10;99.90
8676;DHT22;4375;52.486;13.424;2023-03-04T09:03:28;6.20;99.90
8676;DHT22;4375;52.486;13.424;2023-03-04T09:05:54;6.30;99.90
8676;DHT22;4375;52.486;13.424;2023-03-04T09:08:20;6.30;99.90
8676;DHT22;4375;52.486;13.424;2023-03-04T09:10:46;6.40;99.90
8676;DHT22;4375;52.486;13.424;2023-03-04T09:13:12;6.40;99.90
8676;DHT22;4375;52.486;13.424;2023-03-04T09:15:45;6.60;99.90
8676;DHT22;4375;52.486;13.424;2023-03-04T09:18:12;6.60;99.90
8676;DHT22;4375;52.486;13.424;2023-03-04T09:20:38;6.60;99.90
8676;DHT22;4375;52.486;13.424;2023-03-04T09:23:04;6.60;99.90
8676;DHT22;4375;52.486;13.424;2023-03-04T09:25:32;6.70;99.90
8676;DHT22;4375;52.486;13.424;2023-03-04T09:27:58;6.60;99.90
8676;DHT22;4375;52.486;13.424;2023-03-04T09:30:23;6.70;99.90
8676;DHT22;4375;52.486;13.424;2023-03-04T09:32:49;6.60;99.90
8676;DHT22;4375;52.486;13.424;2023-03-04T09:35:14;6.60;99.90
8676;DHT22;4375;52.486;13.424;2023-03-04T09:37:40;6.70;99.90
8676;DHT22;4375;52.486;13.424;2023-03-04T09:40:06;6.60;99.90
8676;DHT22;4375;52.486;13.424;2023-03-04T09:42:42;6.70;99.90
8676;DHT22;4375;52.486;13.424;2023-03-04T09:45:15;6.80;99.90
8676;DHT22;4375;52.486;13.424;2023-03-04T09:47:41;6.90;99.90
8676;DHT22;4375;52.486;13.424;2023-03-04T09:50:11;7.10;99.90
8676;DHT22;4375;52.486;13.424;2023-03-04T09:53:06;7.10;99.90
8676;DHT22;4375;52.486;13.424;2023-03-04T09:55:43;7.10;99.90
8676;DHT22;4375;52.486;13.424;2023-03-04T10:00:57;7.10;99.90
8676;DHT22;4375;52.486;13.424;2023-03-04T10:03:45;7.10;99.90
8676;DHT22;4375;52.486;13.424;2023-03-04T10:06:21;7.10;99.90
8676;DHT22;4375;52.486;13.424;2023-03-04T10:09:05;7.20;99.90
8676;DHT22;4375;52.486;13.424;2023-03-04T10:11:44;7.30;99.90
8676;DHT22;4375;52.486;13.424;2023-03-04T10:14:29;7.20;99.90
8676;DHT22;4375;52.486;13.424;2023-03-04T10:22:28;7.20;99.90
8676;DHT22;4375;52.486;13.424;2023-03-04T10:24:57;7.30;99.90
8676;DHT22;4375;52.486;13.424;2023-03-04T10:27:23;7.50;99.90
8676;DHT22;4375;52.486;13.424;2023-03-04T10:29:49;7.50;99.90
8676;DHT22;4375;52.486;13.424;2023-03-04T10:32:17;7.70;99.90
8676;DHT22;4375;52.486;13.424;2023-03-04T10:34:43;7.70;99.90
8676;DHT22;4375;52.486;13.424;2023-03-04T10:37:09;7.60;99.90
8676;DHT22;4375;52.486;13.424;2023-03-04T10:39:44;7.50;99.90
8676;DHT22;4375;52.486;13.424;2023-03-04T10:45:02;7.60;99.90
8676;DHT22;4375;52.486;13.424;2023-03-04T10:47:29;7.50;99.90
8676;DHT22;4375;52.486;13.424;2023-03-04T10:49:57;7.60;99.90
8676;DHT22;4375;52.486;13.424;2023-03-04T10:54:54;7.90;99.90
8676;DHT22;4375;52.486;13.424;2023-03-04T10:57:34;7.90;99.90
8676;DHT22;4375;52.486;13.424;2023-03-04T11:00:19;7.80;99.90
8676;DHT22;4375;52.486;13.424;2023-03-04T11:02:48;7.80;99.90
8676;DHT22;4375;52.486;13.424;2023-03-04T11:07:46;7.70;99.90
8676;DHT22;4375;52.486;13.424;2023-03-04T11:10:17;7.60;99.90
8676;DHT22;4375;52.486;13.424;2023-03-04T11:13:01;7.50;99.90
8676;DHT22;4375;52.486;13.424;2023-03-04T11:15:29;7.50;99.90
8676;DHT22;4375;52.486;13.424;2023-03-04T11:20:55;7.40;99.90
8676;DHT22;4375;52.486;13.424;2023-03-04T11:23:40;7.50;99.90
8676;DHT22;4375;52.486;13.424;2023-03-04T11:26:15;7.70;99.90
8676;DHT22;4375;52.486;13.424;2023-03-04T11:31:22;8.00;99.90
8676;DHT22;4375;52.486;13.424;2023-03-04T11:34:00;8.10;99.90
8676;DHT22;4375;52.486;13.424;2023-03-04T11:36:51;8.00;99.90
8676;DHT22;4375;52.486;13.424;2023-03-04T11:39:40;7.90;99.90
8676;DHT22;4375;52.486;13.424;2023-03-04T11:44:40;7.80;99.90
8676;DHT22;4375;52.486;13.424;2023-03-04T11:55:22;7.40;99.90
8676;DHT22;4375;52.486;13.424;2023-03-04T12:12:26;7.30;99.90
8676;DHT22;4375;52.486;13.424;2023-03-04T12:15:36;7.30;99.90
8676;DHT22;4375;52.486;13.424;2023-03-04T12:24:10;7.20;99.90
8676;DHT22;4375;52.486;13.424;2023-03-04T12:32:23;7.30;99.90
8676;DHT22;4375;52.486;13.424;2023-03-04T12:38:33;7.50;99.90
8676;DHT22;4375;52.486;13.424;2023-03-04T12:43:53;7.40;99.90
8676;DHT22;4375;52.486;13.424;2023-03-04T12:46:58;7.50;99.90
8676;DHT22;4375;52.486;13.424;2023-03-04T12:50:36;7.50;99.90
8676;DHT22;4375;52.486;13.424;2023-03-04T12:55:42;7.40;99.90
8676;DHT22;4375;52.486;13.424;2023-03-04T12:58:17;7.60;99.90
8676;DHT22;4375;52.486;13.424;2023-03-04T13:01:27;7.60;99.90
8676;DHT22;4375;52.486;13.424;2023-03-04T13:03:40;7.70;99.90
8676;DHT22;4375;52.486;13.424;2023-03-04T13:06:30;7.60;99.90
8676;DHT22;4375;52.486;13.424;2023-03-04T13:09:29;7.60;99.90
8676;DHT22;4375;52.486;13.424;2023-03-04T13:17:42;7.70;99.90
8676;DHT22;4375;52.486;13.424;2023-03-04T13:28:26;7.50;99.90
8676;DHT22;4375;52.486;13.424;2023-03-04T13:38:33;7.50;99.90
8676;DHT22;4375;52.486;13.424;2023-03-04T13:43:54;7.40;99.90
8676;DHT22;4375;52.486;13.424;2023-03-04T13:51:35;7.30;99.90
8676;DHT22;4375;52.486;13.424;2023-03-04T13:56:32;7.10;99.90
8676;DHT22;4375;52.486;13.424;2023-03-04T14:01:35;7.10;99.90
8676;DHT22;4375;52.486;13.424;2023-03-04T14:04:12;7.10;99.90
8676;DHT22;4375;52.486;13.424;2023-03-04T14:06:42;7.10;99.90
8676;DHT22;4375;52.486;13.424;2023-03-04T14:09:19;7.10;99.90
8676;DHT22;4375;52.486;13.424;2023-03-04T14:11:46;7.10;99.90
8676;DHT22;4375;52.486;13.424;2023-03-04T14:14:18;7.20;99.90
8676;DHT22;4375;52.486;13.424;2023-03-04T14:17:04;7.10;99.90
8676;DHT22;4375;52.486;13.424;2023-03-04T14:19:42;7.10;99.90
8676;DHT22;4375;52.486;13.424;2023-03-04T14:22:27;7.00;99.90
8676;DHT22;4375;52.486;13.424;2023-03-04T14:27:29;6.90;99.90
8676;DHT22;4375;52.486;13.424;2023-03-04T14:29:56;6.90;99.90
8676;DHT22;4375;52.486;13.424;2023-03-04T14:32:23;6.90;99.90
8676;DHT22;4375;52.486;13.424;2023-03-04T14:34:50;7.00;99.90
8676;DHT22;4375;52.486;13.424;2023-03-04T14:37:24;6.90;99.90
8676;DHT22;4375;52.486;13.424;2023-03-04T14:39:53;6.90;99.90
8676;DHT22;4375;52.486;13.424;2023-03-04T14:42:21;6.90;99.90
8676;DHT22;4375;52.486;13.424;2023-03-04T14:44:49;6.90;99.90
8676;DHT22;4375;52.486;13.424;2023-03-04T14:49:41;6.80;99.90
8676;DHT22;4375;52.486;13.424;2023-03-04T14:55:16;6.80;99.90
8676;DHT22;4375;52.486;13.424;2023-03-04T14:57:45;6.70;99.90
8676;DHT22;4375;52.486;13.424;2023-03-04T15:02:56;6.60;99.90
8676;DHT22;4375;52.486;13.424;2023-03-04T15:05:30;6.50;99.90
8676;DHT22;4375;52.486;13.424;2023-03-04T15:08:05;6.50;99.90
8676;DHT22;4375;52.486;13.424;2023-03-04T15:10:41;6.50;99.90
8676;DHT22;4375;52.486;13.424;2023-03-04T15:13:08;6.50;99.90
8676;DHT22;4375;52.486;13.424;2023-03-04T15:18:27;6.50;99.90
8676;DHT22;4375;52.486;13.424;2023-03-04T15:23:28;6.50;99.90
8676;DHT22;4375;52.486;13.424;2023-03-04T15:25:56;6.50;99.90
8676;DHT22;4375;52.486;13.424;2023-03-04T15:28:23;6.50;99.90
8676;DHT22;4375;52.486;13.424;2023-03-04T15:30:50;6.50;99.90
8676;DHT22;4375;52.486;13.424;2023-03-04T15:33:16;6.60;99.90
8676;DHT22;4375;52.486;13.424;2023-03-04T15:35:52;6.60;99.90
8676;DHT22;4375;52.486;13.424;2023-03-04T15:38:19;6.60;99.90
8676;DHT22;4375;52.486;13.424;2023-03-04T15:40:45;6.60;99.90
8676;DHT22;4375;52.486;13.424;2023-03-04T15:43:15;6.50;99.90
8676;DHT22;4375;52.486;13.424;2023-03-04T15:45:41;6.50;99.90
8676;DHT22;4375;52.486;13.424;2023-03-04T15:48:10;6.50;99.90
8676;DHT22;4375;52.486;13.424;2023-03-04T15:50:39;6.50;99.90
8676;DHT22;4375;52.486;13.424;2023-03-04T15:53:11;6.50;99.90
8676;DHT22;4375;52.486;13.424;2023-03-04T15:55:38;6.40;99.90
8676;DHT22;4375;52.486;13.424;2023-03-04T15:58:03;6.30;99.90
8676;DHT22;4375;52.486;13.424;2023-03-04T16:00:30;6.20;99.90
8676;DHT22;4375;52.486;13.424;2023-03-04T16:02:56;6.20;99.90
8676;DHT22;4375;52.486;13.424;2023-03-04T16:05:22;6.20;99.90
8676;DHT22;4375;52.486;13.424;2023-03-04T16:07:49;6.10;99.90
8676;DHT22;4375;52.486;13.424;2023-03-04T16:10:25;6.10;99.90
8676;DHT22;4375;52.486;13.424;2023-03-04T16:12:52;6.20;99.90
8676;DHT22;4375;52.486;13.424;2023-03-04T16:15:20;6.20;99.90
8676;DHT22;4375;52.486;13.424;2023-03-04T16:17:47;6.20;99.90
8676;DHT22;4375;52.486;13.424;2023-03-04T16:20:15;6.20;99.90
8676;DHT22;4375;52.486;13.424;2023-03-04T16:22:42;6.10;99.90
8676;DHT22;4375;52.486;13.424;2023-03-04T16:25:12;6.10;99.90
8676;DHT22;4375;52.486;13.424;2023-03-04T16:27:39;6.30;99.90
8676;DHT22;4375;52.486;13.424;2023-03-04T16:30:07;6.20;99.90
8676;DHT22;4375;52.486;13.424;2023-03-04T16:32:33;6.20;99.90
8676;DHT22;4375;52.486;13.424;2023-03-04T16:34:59;6.10;99.90
8676;DHT22;4375;52.486;13.424;2023-03-04T16:37:25;6.10;99.90
8676;DHT22;4375;52.486;13.424;2023-03-04T16:39:50;6.10;99.90
8676;DHT22;4375;52.486;13.424;2023-03-04T16:42:17;6.10;99.90
8676;DHT22;4375;52.486;13.424;2023-03-04T16:44:48;6.00;99.90
8676;DHT22;4375;52.486;13.424;2023-03-04T16:47:13;6.00;99.90
8676;DHT22;4375;52.486;13.424;2023-03-04T16:49:39;6.00;99.90
8676;DHT22;4375;52.486;13.424;2023-03-04T16:52:06;6.00;99.90
8676;DHT22;4375;52.486;13.424;2023-03-04T16:54:34;6.00;99.90
8676;DHT22;4375;52.486;13.424;2023-03-04T16:57:00;5.90;99.90
8676;DHT22;4375;52.486;13.424;2023-03-04T16:59:27;6.00;99.90
8676;DHT22;4375;52.486;13.424;2023-03-04T17:01:53;6.00;99.90
8676;DHT22;4375;52.486;13.424;2023-03-04T17:04:20;5.90;99.90
8676;DHT22;4375;52.486;13.424;2023-03-04T17:06:46;5.90;99.90
8676;DHT22;4375;52.486;13.424;2023-03-04T17:09:11;6.00;99.90
8676;DHT22;4375;52.486;13.424;2023-03-04T17:11:37;5.90;99.90
8676;DHT22;4375;52.486;13.424;2023-03-04T17:14:03;5.90;99.90
8676;DHT22;4375;52.486;13.424;2023-03-04T17:16:29;5.90;99.90
8676;DHT22;4375;52.486;13.424;2023-03-04T17:18:55;6.00;99.90
8676;DHT22;4375;52.486;13.424;2023-03-04T17:21:24;6.00;99.90
8676;DHT22;4375;52.486;13.424;2023-03-04T17:23:51;5.90;99.90
8676;DHT22;4375;52.486;13.424;2023-03-04T17:26:19;5.90;99.90
8676;DHT22;4375;52.486;13.424;2023-03-04T17:28:46;5.90;99.90
8676;DHT22;4375;52.486;13.424;2023-03-04T17:31:14;6.00;99.90
8676;DHT22;4375;52.486;13.424;2023-03-04T17:33:41;5.90;99.90
8676;DHT22;4375;52.486;13.424;2023-03-04T17:36:10;6.00;99.90
8676;DHT22;4375;52.486;13.424;2023-03-04T17:38:36;6.00;99.90
8676;DHT22;4375;52.486;13.424;2023-03-04T17:41:06;6.00;99.90
8676;DHT22;4375;52.486;13.424;2023-03-04T17:43:32;5.90;99.90
8676;DHT22;4375;52.486;13.424;2023-03-04T17:46:06;6.00;99.90
8676;DHT22;4375;52.486;13.424;2023-03-04T17:48:32;5.90;99.90
8676;DHT22;4375;52.486;13.424;2023-03-04T17:50:58;5.90;99.90
8676;DHT22;4375;52.486;13.424;2023-03-04T17:53:24;5.80;99.90
8676;DHT22;4375;52.486;13.424;2023-03-04T17:55:50;5.90;99.90
8676;DHT22;4375;52.486;13.424;2023-03-04T17:58:15;5.80;99.90
8676;DHT22;4375;52.486;13.424;2023-03-04T18:00:41;5.80;99.90
8676;DHT22;4375;52.486;13.424;2023-03-04T18:03:10;5.80;99.90
8676;DHT22;4375;52.486;13.424;2023-03-04T18:05:37;5.80;99.90
8676;DHT22;4375;52.486;13.424;2023-03-04T18:08:02;5.80;99.90
8676;DHT22;4375;52.486;13.424;2023-03-04T18:10:28;5.80;99.90